Terminal Aerodrome Forecast
Issued by NWS La Crosse, WI

Home | Current Version | Previous Version | Text Only | Print | Product List | Glossary On
Versions: 1 2 3 4 5 6 7 8 9 10 11 12 13 14 15 16 17 18 19 20
000
FTUS43 KARX 250520
TAFRST
TAF
KRST 250520Z 2506/2606 30010KT P6SM SCT080
     FM251000 30012KT P6SM BKN025
     FM251900 30015G22KT P6SM VCSH BKN030
     FM260100 30009KT P6SM SCT040=

USA.gov is the U.S. government's official web portal to all federal, state and local government web resources and services.